sensor_id;sensor_type;location;lat;lon;timestamp;temperature;humidity
17215;DHT22;8723;51.502;6.918;2023-05-19T00:00:03;10.50;1.00
17215;DHT22;8723;51.502;6.918;2023-05-19T00:02:31;10.50;1.00
17215;DHT22;8723;51.502;6.918;2023-05-19T00:04:59;10.40;1.00
17215;DHT22;8723;51.502;6.918;2023-05-19T00:07:30;10.50;1.00
17215;DHT22;8723;51.502;6.918;2023-05-19T00:09:59;10.40;1.00
17215;DHT22;8723;51.502;6.918;2023-05-19T00:12:26;10.30;1.00
17215;DHT22;8723;51.502;6.918;2023-05-19T00:14:53;10.40;1.00
17215;DHT22;8723;51.502;6.918;2023-05-19T00:17:20;10.40;1.00
17215;DHT22;8723;51.502;6.918;2023-05-19T00:19:47;10.30;1.00
17215;DHT22;8723;51.502;6.918;2023-05-19T00:22:14;10.30;1.00
17215;DHT22;8723;51.502;6.918;2023-05-19T00:24:41;10.20;1.00
17215;DHT22;8723;51.502;6.918;2023-05-19T00:27:09;10.20;1.00
17215;DHT22;8723;51.502;6.918;2023-05-19T00:29:36;10.20;1.00
17215;DHT22;8723;51.502;6.918;2023-05-19T00:32:04;10.10;1.00
17215;DHT22;8723;51.502;6.918;2023-05-19T00:34:31;10.10;1.00
17215;DHT22;8723;51.502;6.918;2023-05-19T00:36:57;10.20;1.00
17215;DHT22;8723;51.502;6.918;2023-05-19T00:39:24;10.10;1.00
17215;DHT22;8723;51.502;6.918;2023-05-19T00:41:51;10.10;1.00
17215;DHT22;8723;51.502;6.918;2023-05-19T00:44:19;10.00;1.00
17215;DHT22;8723;51.502;6.918;2023-05-19T00:46:46;10.00;1.00
17215;DHT22;8723;51.502;6.918;2023-05-19T00:49:12;9.90;1.00
17215;DHT22;8723;51.502;6.918;2023-05-19T00:51:40;9.90;1.00
17215;DHT22;8723;51.502;6.918;2023-05-19T00:54:07;9.90;1.00
17215;DHT22;8723;51.502;6.918;2023-05-19T00:56:34;9.90;1.00
17215;DHT22;8723;51.502;6.918;2023-05-19T00:59:01;9.80;1.00
17215;DHT22;8723;51.502;6.918;2023-05-19T01:01:29;9.80;1.00
17215;DHT22;8723;51.502;6.918;2023-05-19T01:03:57;9.80;1.00
17215;DHT22;8723;51.502;6.918;2023-05-19T01:06:24;9.80;1.00
17215;DHT22;8723;51.502;6.918;2023-05-19T01:08:53;9.70;1.00
17215;DHT22;8723;51.502;6.918;2023-05-19T01:11:20;9.70;1.00
17215;DHT22;8723;51.502;6.918;2023-05-19T01:13:47;9.60;1.00
17215;DHT22;8723;51.502;6.918;2023-05-19T01:16:21;9.50;1.00
17215;DHT22;8723;51.502;6.918;2023-05-19T01:18:55;9.60;1.00
17215;DHT22;8723;51.502;6.918;2023-05-19T01:21:50;9.40;1.00
17215;DHT22;8723;51.502;6.918;2023-05-19T01:24:51;9.40;1.00
17215;DHT22;8723;51.502;6.918;2023-05-19T01:30:24;9.40;1.00
17215;DHT22;8723;51.502;6.918;2023-05-19T01:32:53;9.40;1.00
17215;DHT22;8723;51.502;6.918;2023-05-19T01:35:23;9.40;1.00
17215;DHT22;8723;51.502;6.918;2023-05-19T01:37:51;9.40;1.00
17215;DHT22;8723;51.502;6.918;2023-05-19T01:40:21;9.40;1.00
17215;DHT22;8723;51.502;6.918;2023-05-19T01:42:51;9.30;1.00
17215;DHT22;8723;51.502;6.918;2023-05-19T01:45:22;9.30;1.00
17215;DHT22;8723;51.502;6.918;2023-05-19T01:47:54;9.10;1.00
17215;DHT22;8723;51.502;6.918;2023-05-19T01:50:23;8.90;1.00
17215;DHT22;8723;51.502;6.918;2023-05-19T01:52:54;8.90;1.00
17215;DHT22;8723;51.502;6.918;2023-05-19T01:55:24;8.90;1.00
17215;DHT22;8723;51.502;6.918;2023-05-19T01:58:01;8.90;1.00
17215;DHT22;8723;51.502;6.918;2023-05-19T02:00:48;8.90;1.00
17215;DHT22;8723;51.502;6.918;2023-05-19T02:03:31;8.70;1.00
17215;DHT22;8723;51.502;6.918;2023-05-19T02:06:13;8.70;1.00
17215;DHT22;8723;51.502;6.918;2023-05-19T02:08:55;8.70;1.00
17215;DHT22;8723;51.502;6.918;2023-05-19T02:11:29;8.60;1.00
17215;DHT22;8723;51.502;6.918;2023-05-19T02:14:01;8.60;1.00
17215;DHT22;8723;51.502;6.918;2023-05-19T02:16:29;8.60;1.00
17215;DHT22;8723;51.502;6.918;2023-05-19T02:18:58;8.60;1.00
17215;DHT22;8723;51.502;6.918;2023-05-19T02:21:28;8.70;1.00
17215;DHT22;8723;51.502;6.918;2023-05-19T02:23:57;8.70;1.00
17215;DHT22;8723;51.502;6.918;2023-05-19T02:26:25;8.60;1.00
17215;DHT22;8723;51.502;6.918;2023-05-19T02:28:52;8.60;1.00
17215;DHT22;8723;51.502;6.918;2023-05-19T02:31:21;8.60;1.00
17215;DHT22;8723;51.502;6.918;2023-05-19T02:33:53;8.70;1.00
17215;DHT22;8723;51.502;6.918;2023-05-19T02:36:22;8.60;1.00
17215;DHT22;8723;51.502;6.918;2023-05-19T02:38:52;8.50;1.00
17215;DHT22;8723;51.502;6.918;2023-05-19T02:41:20;8.50;1.00
17215;DHT22;8723;51.502;6.918;2023-05-19T02:43:47;8.40;1.00
17215;DHT22;8723;51.502;6.918;2023-05-19T02:46:14;8.30;1.00
17215;DHT22;8723;51.502;6.918;2023-05-19T02:48:41;8.30;1.00
17215;DHT22;8723;51.502;6.918;2023-05-19T02:51:09;8.30;1.00
17215;DHT22;8723;51.502;6.918;2023-05-19T02:53:35;8.30;1.00
17215;DHT22;8723;51.502;6.918;2023-05-19T02:56:03;8.20;1.00
17215;DHT22;8723;51.502;6.918;2023-05-19T02:58:30;8.10;1.00
17215;DHT22;8723;51.502;6.918;2023-05-19T03:00:58;8.20;1.00
17215;DHT22;8723;51.502;6.918;2023-05-19T03:03:27;8.20;1.00
17215;DHT22;8723;51.502;6.918;2023-05-19T03:05:56;8.20;1.00
17215;DHT22;8723;51.502;6.918;2023-05-19T03:08:27;8.10;1.00
17215;DHT22;8723;51.502;6.918;2023-05-19T03:10:56;8.10;1.00
17215;DHT22;8723;51.502;6.918;2023-05-19T03:13:24;8.10;1.00
17215;DHT22;8723;51.502;6.918;2023-05-19T03:15:50;8.10;7.90
17215;DHT22;8723;51.502;6.918;2023-05-19T03:18:17;8.10;1.00
17215;DHT22;8723;51.502;6.918;2023-05-19T03:20:44;7.90;9.40
17215;DHT22;8723;51.502;6.918;2023-05-19T03:23:11;7.80;34.60
17215;DHT22;8723;51.502;6.918;2023-05-19T03:25:39;7.80;44.70
17215;DHT22;8723;51.502;6.918;2023-05-19T03:28:05;7.70;41.70
17215;DHT22;8723;51.502;6.918;2023-05-19T03:30:32;7.70;56.00
17215;DHT22;8723;51.502;6.918;2023-05-19T03:32:59;7.70;52.20
17215;DHT22;8723;51.502;6.918;2023-05-19T03:35:27;7.70;55.70
17215;DHT22;8723;51.502;6.918;2023-05-19T03:37:54;7.70;70.40
17215;DHT22;8723;51.502;6.918;2023-05-19T03:40:21;7.80;43.50
17215;DHT22;8723;51.502;6.918;2023-05-19T03:42:49;7.80;55.50
17215;DHT22;8723;51.502;6.918;2023-05-19T03:45:16;7.90;53.80
17215;DHT22;8723;51.502;6.918;2023-05-19T03:47:42;7.90;42.60
17215;DHT22;8723;51.502;6.918;2023-05-19T03:50:10;7.80;33.60
17215;DHT22;8723;51.502;6.918;2023-05-19T03:52:38;7.80;39.70
17215;DHT22;8723;51.502;6.918;2023-05-19T03:55:06;7.90;46.20
17215;DHT22;8723;51.502;6.918;2023-05-19T03:57:32;7.90;37.70
17215;DHT22;8723;51.502;6.918;2023-05-19T04:00:01;7.90;31.30
17215;DHT22;8723;51.502;6.918;2023-05-19T04:02:30;7.80;30.30
17215;DHT22;8723;51.502;6.918;2023-05-19T04:04:57;7.80;58.90
17215;DHT22;8723;51.502;6.918;2023-05-19T04:07:24;7.90;65.50
17215;DHT22;8723;51.502;6.918;2023-05-19T04:09:50;7.90;57.70
17215;DHT22;8723;51.502;6.918;2023-05-19T04:12:17;7.90;56.60
17215;DHT22;8723;51.502;6.918;2023-05-19T04:14:44;7.80;50.20
17215;DHT22;8723;51.502;6.918;2023-05-19T04:17:12;7.80;68.80
17215;DHT22;8723;51.502;6.918;2023-05-19T04:19:39;7.80;99.90
17215;DHT22;8723;51.502;6.918;2023-05-19T04:22:06;7.80;99.90
17215;DHT22;8723;51.502;6.918;2023-05-19T04:24:32;7.90;99.90
17215;DHT22;8723;51.502;6.918;2023-05-19T04:26:59;7.90;99.90
17215;DHT22;8723;51.502;6.918;2023-05-19T04:29:29;7.90;98.00
17215;DHT22;8723;51.502;6.918;2023-05-19T04:31:57;8.00;97.10
17215;DHT22;8723;51.502;6.918;2023-05-19T04:34:26;8.00;91.10
17215;DHT22;8723;51.502;6.918;2023-05-19T04:36:53;8.00;78.70
17215;DHT22;8723;51.502;6.918;2023-05-19T04:39:20;8.00;46.90
17215;DHT22;8723;51.502;6.918;2023-05-19T04:41:47;8.10;59.70
17215;DHT22;8723;51.502;6.918;2023-05-19T04:44:14;8.00;93.40
17215;DHT22;8723;51.502;6.918;2023-05-19T04:46:42;8.00;99.90
17215;DHT22;8723;51.502;6.918;2023-05-19T04:49:09;8.10;99.90
17215;DHT22;8723;51.502;6.918;2023-05-19T04:51:38;8.10;99.90
17215;DHT22;8723;51.502;6.918;2023-05-19T04:54:06;8.10;99.90
17215;DHT22;8723;51.502;6.918;2023-05-19T04:56:32;8.20;90.40
17215;DHT22;8723;51.502;6.918;2023-05-19T04:58:59;8.30;76.00
17215;DHT22;8723;51.502;6.918;2023-05-19T05:01:26;8.40;42.30
17215;DHT22;8723;51.502;6.918;2023-05-19T05:03:55;8.40;12.40
17215;DHT22;8723;51.502;6.918;2023-05-19T05:06:23;8.50;1.00
17215;DHT22;8723;51.502;6.918;2023-05-19T05:08:52;8.50;1.00
17215;DHT22;8723;51.502;6.918;2023-05-19T05:11:19;8.60;1.00
17215;DHT22;8723;51.502;6.918;2023-05-19T05:13:47;8.70;1.00
17215;DHT22;8723;51.502;6.918;2023-05-19T05:16:14;8.70;1.00
17215;DHT22;8723;51.502;6.918;2023-05-19T05:18:41;8.80;1.00
17215;DHT22;8723;51.502;6.918;2023-05-19T05:21:09;8.80;1.00
17215;DHT22;8723;51.502;6.918;2023-05-19T05:23:36;8.90;1.00
17215;DHT22;8723;51.502;6.918;2023-05-19T05:26:09;8.90;1.00
17215;DHT22;8723;51.502;6.918;2023-05-19T05:28:40;9.00;1.00
17215;DHT22;8723;51.502;6.918;2023-05-19T05:31:07;9.00;1.00
17215;DHT22;8723;51.502;6.918;2023-05-19T05:33:34;9.10;1.00
17215;DHT22;8723;51.502;6.918;2023-05-19T05:36:01;9.10;1.00
17215;DHT22;8723;51.502;6.918;2023-05-19T05:38:28;9.20;1.00
17215;DHT22;8723;51.502;6.918;2023-05-19T05:40:55;9.30;1.00
17215;DHT22;8723;51.502;6.918;2023-05-19T05:43:23;9.40;1.00
17215;DHT22;8723;51.502;6.918;2023-05-19T05:45:50;9.40;1.00
17215;DHT22;8723;51.502;6.918;2023-05-19T05:48:17;9.50;1.00
17215;DHT22;8723;51.502;6.918;2023-05-19T05:50:45;9.50;1.00
17215;DHT22;8723;51.502;6.918;2023-05-19T05:53:16;9.60;1.00
17215;DHT22;8723;51.502;6.918;2023-05-19T05:55:44;9.70;1.00
17215;DHT22;8723;51.502;6.918;2023-05-19T05:58:11;9.70;1.00
17215;DHT22;8723;51.502;6.918;2023-05-19T06:00:41;9.80;1.00
17215;DHT22;8723;51.502;6.918;2023-05-19T06:03:08;9.90;1.00
17215;DHT22;8723;51.502;6.918;2023-05-19T06:05:35;10.00;1.00
17215;DHT22;8723;51.502;6.918;2023-05-19T06:08:02;10.10;1.00
17215;DHT22;8723;51.502;6.918;2023-05-19T06:10:29;10.10;1.00
17215;DHT22;8723;51.502;6.918;2023-05-19T06:12:56;10.20;1.00
17215;DHT22;8723;51.502;6.918;2023-05-19T06:15:23;10.30;1.00
17215;DHT22;8723;51.502;6.918;2023-05-19T06:17:51;10.40;1.00
17215;DHT22;8723;51.502;6.918;2023-05-19T06:20:19;10.60;1.00
17215;DHT22;8723;51.502;6.918;2023-05-19T06:22:45;10.70;1.00
17215;DHT22;8723;51.502;6.918;2023-05-19T06:25:12;10.90;1.00
17215;DHT22;8723;51.502;6.918;2023-05-19T06:27:39;11.00;1.00
17215;DHT22;8723;51.502;6.918;2023-05-19T06:30:07;11.10;1.00
17215;DHT22;8723;51.502;6.918;2023-05-19T06:32:34;11.20;1.00
17215;DHT22;8723;51.502;6.918;2023-05-19T06:35:03;11.40;1.00
17215;DHT22;8723;51.502;6.918;2023-05-19T06:37:30;11.50;1.00
17215;DHT22;8723;51.502;6.918;2023-05-19T06:39:56;11.60;1.00
17215;DHT22;8723;51.502;6.918;2023-05-19T06:42:23;11.70;1.00
17215;DHT22;8723;51.502;6.918;2023-05-19T06:44:51;11.90;1.00
17215;DHT22;8723;51.502;6.918;2023-05-19T06:47:18;12.00;1.00
17215;DHT22;8723;51.502;6.918;2023-05-19T06:49:45;12.10;1.00
17215;DHT22;8723;51.502;6.918;2023-05-19T06:52:16;12.20;1.00
17215;DHT22;8723;51.502;6.918;2023-05-19T06:54:43;12.30;1.00
17215;DHT22;8723;51.502;6.918;2023-05-19T06:57:10;12.40;1.00
17215;DHT22;8723;51.502;6.918;2023-05-19T06:59:37;12.40;1.00
17215;DHT22;8723;51.502;6.918;2023-05-19T07:02:06;12.50;1.00
17215;DHT22;8723;51.502;6.918;2023-05-19T07:04:32;12.70;1.00
17215;DHT22;8723;51.502;6.918;2023-05-19T07:06:59;12.80;1.00
17215;DHT22;8723;51.502;6.918;2023-05-19T07:09:28;12.90;1.00
17215;DHT22;8723;51.502;6.918;2023-05-19T07:11:54;13.00;1.00
17215;DHT22;8723;51.502;6.918;2023-05-19T07:14:21;13.00;1.00
17215;DHT22;8723;51.502;6.918;2023-05-19T07:16:48;13.10;1.00
17215;DHT22;8723;51.502;6.918;2023-05-19T07:19:15;13.20;1.00
17215;DHT22;8723;51.502;6.918;2023-05-19T07:21:44;13.30;1.00
17215;DHT22;8723;51.502;6.918;2023-05-19T07:24:10;13.40;1.00
17215;DHT22;8723;51.502;6.918;2023-05-19T07:26:39;13.60;1.00
17215;DHT22;8723;51.502;6.918;2023-05-19T07:29:05;13.60;1.00
17215;DHT22;8723;51.502;6.918;2023-05-19T07:31:32;13.70;1.00
17215;DHT22;8723;51.502;6.918;2023-05-19T07:33:59;13.80;1.00
17215;DHT22;8723;51.502;6.918;2023-05-19T07:36:26;14.00;1.00
17215;DHT22;8723;51.502;6.918;2023-05-19T07:38:53;14.10;1.00
17215;DHT22;8723;51.502;6.918;2023-05-19T07:41:20;14.20;1.00
17215;DHT22;8723;51.502;6.918;2023-05-19T07:43:48;14.30;1.00
17215;DHT22;8723;51.502;6.918;2023-05-19T07:46:15;14.30;1.00
17215;DHT22;8723;51.502;6.918;2023-05-19T07:48:42;14.40;1.00
17215;DHT22;8723;51.502;6.918;2023-05-19T07:51:10;14.50;1.00
17215;DHT22;8723;51.502;6.918;2023-05-19T07:53:37;14.60;1.00
17215;DHT22;8723;51.502;6.918;2023-05-19T07:56:04;14.60;1.00
17215;DHT22;8723;51.502;6.918;2023-05-19T07:58:31;14.70;1.00
17215;DHT22;8723;51.502;6.918;2023-05-19T08:00:59;14.70;1.00
17215;DHT22;8723;51.502;6.918;2023-05-19T08:03:27;14.80;1.00
17215;DHT22;8723;51.502;6.918;2023-05-19T08:05:54;15.00;1.00
17215;DHT22;8723;51.502;6.918;2023-05-19T08:08:21;15.00;1.00
17215;DHT22;8723;51.502;6.918;2023-05-19T08:10:48;15.10;1.00
17215;DHT22;8723;51.502;6.918;2023-05-19T08:13:15;15.10;1.00
17215;DHT22;8723;51.502;6.918;2023-05-19T08:15:42;15.10;1.00
17215;DHT22;8723;51.502;6.918;2023-05-19T08:18:10;15.20;1.00
17215;DHT22;8723;51.502;6.918;2023-05-19T08:20:37;15.40;1.00
17215;DHT22;8723;51.502;6.918;2023-05-19T08:23:04;15.50;1.00
17215;DHT22;8723;51.502;6.918;2023-05-19T08:25:31;15.60;1.00
17215;DHT22;8723;51.502;6.918;2023-05-19T08:27:57;15.70;1.00
17215;DHT22;8723;51.502;6.918;2023-05-19T08:30:24;15.80;1.00
17215;DHT22;8723;51.502;6.918;2023-05-19T08:32:54;15.90;1.00
17215;DHT22;8723;51.502;6.918;2023-05-19T08:35:22;16.00;1.00
17215;DHT22;8723;51.502;6.918;2023-05-19T08:37:49;16.10;1.00
17215;DHT22;8723;51.502;6.918;2023-05-19T08:40:16;16.10;1.00
17215;DHT22;8723;51.502;6.918;2023-05-19T08:42:46;16.10;1.00
17215;DHT22;8723;51.502;6.918;2023-05-19T08:45:13;16.20;1.00
17215;DHT22;8723;51.502;6.918;2023-05-19T08:47:40;16.30;1.00
17215;DHT22;8723;51.502;6.918;2023-05-19T08:50:08;16.50;1.00
17215;DHT22;8723;51.502;6.918;2023-05-19T08:52:46;16.50;1.00
17215;DHT22;8723;51.502;6.918;2023-05-19T08:55:23;16.70;1.00
17215;DHT22;8723;51.502;6.918;2023-05-19T08:57:52;16.60;1.00
17215;DHT22;8723;51.502;6.918;2023-05-19T09:00:19;16.70;1.00
17215;DHT22;8723;51.502;6.918;2023-05-19T09:02:48;16.90;1.00
17215;DHT22;8723;51.502;6.918;2023-05-19T09:05:15;16.90;1.00
17215;DHT22;8723;51.502;6.918;2023-05-19T09:07:44;17.00;1.00
17215;DHT22;8723;51.502;6.918;2023-05-19T09:10:12;17.10;1.00
17215;DHT22;8723;51.502;6.918;2023-05-19T09:12:41;17.20;1.00
17215;DHT22;8723;51.502;6.918;2023-05-19T09:15:10;17.30;1.00
17215;DHT22;8723;51.502;6.918;2023-05-19T09:17:37;17.30;1.00
17215;DHT22;8723;51.502;6.918;2023-05-19T09:20:06;17.30;1.00
17215;DHT22;8723;51.502;6.918;2023-05-19T09:22:40;17.30;1.00
17215;DHT22;8723;51.502;6.918;2023-05-19T09:25:18;17.10;1.00
17215;DHT22;8723;51.502;6.918;2023-05-19T09:27:46;17.20;1.00
17215;DHT22;8723;51.502;6.918;2023-05-19T09:30:14;17.40;1.00
17215;DHT22;8723;51.502;6.918;2023-05-19T09:32:41;17.50;1.00
17215;DHT22;8723;51.502;6.918;2023-05-19T09:35:09;17.30;1.00
17215;DHT22;8723;51.502;6.918;2023-05-19T09:37:38;17.40;1.00
17215;DHT22;8723;51.502;6.918;2023-05-19T09:40:07;17.50;1.00
17215;DHT22;8723;51.502;6.918;2023-05-19T09:42:38;17.50;1.00
17215;DHT22;8723;51.502;6.918;2023-05-19T09:45:06;17.70;1.00
17215;DHT22;8723;51.502;6.918;2023-05-19T09:47:34;17.70;1.00
17215;DHT22;8723;51.502;6.918;2023-05-19T09:50:04;17.80;1.00
17215;DHT22;8723;51.502;6.918;2023-05-19T09:52:34;17.70;1.00
17215;DHT22;8723;51.502;6.918;2023-05-19T09:55:01;17.80;1.00
17215;DHT22;8723;51.502;6.918;2023-05-19T09:57:32;17.90;1.00
17215;DHT22;8723;51.502;6.918;2023-05-19T10:00:02;18.00;1.00
17215;DHT22;8723;51.502;6.918;2023-05-19T10:02:35;18.10;1.00
17215;DHT22;8723;51.502;6.918;2023-05-19T10:05:02;18.10;1.00
17215;DHT22;8723;51.502;6.918;2023-05-19T10:07:30;18.10;1.00
17215;DHT22;8723;51.502;6.918;2023-05-19T10:09:58;18.30;1.00
17215;DHT22;8723;51.502;6.918;2023-05-19T10:12:25;18.40;1.00
17215;DHT22;8723;51.502;6.918;2023-05-19T10:14:53;18.50;1.00
17215;DHT22;8723;51.502;6.918;2023-05-19T10:17:24;18.70;1.00
17215;DHT22;8723;51.502;6.918;2023-05-19T10:19:51;18.50;1.00
17215;DHT22;8723;51.502;6.918;2023-05-19T10:22:19;18.70;1.00
17215;DHT22;8723;51.502;6.918;2023-05-19T10:24:46;18.80;1.00
17215;DHT22;8723;51.502;6.918;2023-05-19T10:27:13;18.80;1.00
17215;DHT22;8723;51.502;6.918;2023-05-19T10:29:46;18.70;1.00
17215;DHT22;8723;51.502;6.918;2023-05-19T10:32:17;18.60;1.00
17215;DHT22;8723;51.502;6.918;2023-05-19T10:34:58;18.90;1.00
17215;DHT22;8723;51.502;6.918;2023-05-19T10:37:33;18.80;1.00
17215;DHT22;8723;51.502;6.918;2023-05-19T10:40:08;18.90;1.00
17215;DHT22;8723;51.502;6.918;2023-05-19T10:42:39;18.80;1.00
17215;DHT22;8723;51.502;6.918;2023-05-19T10:45:14;18.80;1.00
17215;DHT22;8723;51.502;6.918;2023-05-19T10:47:43;19.00;1.00
17215;DHT22;8723;51.502;6.918;2023-05-19T10:50:11;19.00;1.00
17215;DHT22;8723;51.502;6.918;2023-05-19T10:52:39;19.00;1.00
17215;DHT22;8723;51.502;6.918;2023-05-19T10:55:07;19.10;1.00
17215;DHT22;8723;51.502;6.918;2023-05-19T10:57:34;19.20;1.00
17215;DHT22;8723;51.502;6.918;2023-05-19T11:00:03;19.20;1.00
17215;DHT22;8723;51.502;6.918;2023-05-19T11:02:37;19.00;1.00
17215;DHT22;8723;51.502;6.918;2023-05-19T11:05:09;19.10;1.00
17215;DHT22;8723;51.502;6.918;2023-05-19T11:07:40;19.20;1.00
17215;DHT22;8723;51.502;6.918;2023-05-19T11:10:07;19.20;1.00
17215;DHT22;8723;51.502;6.918;2023-05-19T11:12:41;19.30;1.00
17215;DHT22;8723;51.502;6.918;2023-05-19T11:15:12;19.50;1.00
17215;DHT22;8723;51.502;6.918;2023-05-19T11:17:40;19.50;1.00
17215;DHT22;8723;51.502;6.918;2023-05-19T11:20:08;19.60;1.00
17215;DHT22;8723;51.502;6.918;2023-05-19T11:23:00;19.70;1.00
17215;DHT22;8723;51.502;6.918;2023-05-19T11:25:41;19.60;1.00
17215;DHT22;8723;51.502;6.918;2023-05-19T11:28:09;19.80;1.00
17215;DHT22;8723;51.502;6.918;2023-05-19T11:30:38;19.90;1.00
17215;DHT22;8723;51.502;6.918;2023-05-19T11:33:05;20.20;1.00
17215;DHT22;8723;51.502;6.918;2023-05-19T11:35:32;20.50;1.00
17215;DHT22;8723;51.502;6.918;2023-05-19T11:38:01;20.30;1.00
17215;DHT22;8723;51.502;6.918;2023-05-19T11:40:29;20.50;1.00
17215;DHT22;8723;51.502;6.918;2023-05-19T11:42:55;20.40;1.00
17215;DHT22;8723;51.502;6.918;2023-05-19T11:45:25;20.60;1.00
17215;DHT22;8723;51.502;6.918;2023-05-19T11:47:54;20.80;1.00
17215;DHT22;8723;51.502;6.918;2023-05-19T11:50:21;20.50;1.00
17215;DHT22;8723;51.502;6.918;2023-05-19T11:52:48;20.70;1.00
17215;DHT22;8723;51.502;6.918;2023-05-19T11:55:17;20.90;1.00
17215;DHT22;8723;51.502;6.918;2023-05-19T11:57:56;21.20;1.00
17215;DHT22;8723;51.502;6.918;2023-05-19T12:00:24;21.20;1.00
17215;DHT22;8723;51.502;6.918;2023-05-19T12:02:51;21.10;1.00
17215;DHT22;8723;51.502;6.918;2023-05-19T12:05:19;21.20;1.00
17215;DHT22;8723;51.502;6.918;2023-05-19T12:07:46;21.20;1.00
17215;DHT22;8723;51.502;6.918;2023-05-19T12:10:14;21.10;1.00
17215;DHT22;8723;51.502;6.918;2023-05-19T12:12:42;21.20;1.00
17215;DHT22;8723;51.502;6.918;2023-05-19T12:15:10;21.30;1.00
17215;DHT22;8723;51.502;6.918;2023-05-19T12:17:37;21.20;1.00
17215;DHT22;8723;51.502;6.918;2023-05-19T12:20:05;21.00;1.00
17215;DHT22;8723;51.502;6.918;2023-05-19T12:22:32;21.00;1.00
17215;DHT22;8723;51.502;6.918;2023-05-19T12:24:59;21.00;1.00
17215;DHT22;8723;51.502;6.918;2023-05-19T12:27:27;21.10;1.00
17215;DHT22;8723;51.502;6.918;2023-05-19T12:29:56;21.20;1.00
17215;DHT22;8723;51.502;6.918;2023-05-19T12:32:23;21.20;1.00
17215;DHT22;8723;51.502;6.918;2023-05-19T12:34:50;21.20;1.00
17215;DHT22;8723;51.502;6.918;2023-05-19T12:37:17;21.20;1.00
17215;DHT22;8723;51.502;6.918;2023-05-19T12:39:44;21.40;1.00
17215;DHT22;8723;51.502;6.918;2023-05-19T12:42:11;21.00;1.00
17215;DHT22;8723;51.502;6.918;2023-05-19T12:44:42;21.10;1.00
17215;DHT22;8723;51.502;6.918;2023-05-19T12:47:12;21.20;1.00
17215;DHT22;8723;51.502;6.918;2023-05-19T12:49:53;21.20;1.00
17215;DHT22;8723;51.502;6.918;2023-05-19T12:52:20;21.20;1.00
17215;DHT22;8723;51.502;6.918;2023-05-19T12:54:48;21.40;1.00
17215;DHT22;8723;51.502;6.918;2023-05-19T12:57:16;21.40;1.00
17215;DHT22;8723;51.502;6.918;2023-05-19T12:59:43;21.10;1.00
17215;DHT22;8723;51.502;6.918;2023-05-19T13:02:12;21.10;1.00
17215;DHT22;8723;51.502;6.918;2023-05-19T13:04:39;21.20;1.00
17215;DHT22;8723;51.502;6.918;2023-05-19T13:07:06;21.30;1.00
17215;DHT22;8723;51.502;6.918;2023-05-19T13:09:33;21.40;1.00
17215;DHT22;8723;51.502;6.918;2023-05-19T13:12:01;21.50;1.00
17215;DHT22;8723;51.502;6.918;2023-05-19T13:14:29;21.50;1.00
17215;DHT22;8723;51.502;6.918;2023-05-19T13:16:55;21.50;1.00
17215;DHT22;8723;51.502;6.918;2023-05-19T13:19:25;21.60;1.00
17215;DHT22;8723;51.502;6.918;2023-05-19T13:21:52;21.70;1.00
17215;DHT22;8723;51.502;6.918;2023-05-19T13:24:19;21.20;1.00
17215;DHT22;8723;51.502;6.918;2023-05-19T13:26:45;21.20;1.00
17215;DHT22;8723;51.502;6.918;2023-05-19T13:29:12;21.40;1.00
17215;DHT22;8723;51.502;6.918;2023-05-19T13:31:39;21.80;1.00
17215;DHT22;8723;51.502;6.918;2023-05-19T13:34:06;22.00;1.00
17215;DHT22;8723;51.502;6.918;2023-05-19T13:36:34;22.30;1.00
17215;DHT22;8723;51.502;6.918;2023-05-19T13:39:01;22.60;1.00
17215;DHT22;8723;51.502;6.918;2023-05-19T13:41:28;22.90;1.00
17215;DHT22;8723;51.502;6.918;2023-05-19T13:43:56;23.20;1.00
17215;DHT22;8723;51.502;6.918;2023-05-19T13:46:23;22.80;1.00
17215;DHT22;8723;51.502;6.918;2023-05-19T13:48:50;22.50;1.00
17215;DHT22;8723;51.502;6.918;2023-05-19T13:51:17;22.40;1.00
17215;DHT22;8723;51.502;6.918;2023-05-19T13:53:45;22.30;1.00
17215;DHT22;8723;51.502;6.918;2023-05-19T13:56:12;22.00;1.00
17215;DHT22;8723;51.502;6.918;2023-05-19T13:58:38;21.80;1.00
17215;DHT22;8723;51.502;6.918;2023-05-19T14:01:05;21.60;1.00
17215;DHT22;8723;51.502;6.918;2023-05-19T14:03:32;21.30;1.00
17215;DHT22;8723;51.502;6.918;2023-05-19T14:05:59;21.20;1.00
17215;DHT22;8723;51.502;6.918;2023-05-19T14:08:26;21.20;1.00
17215;DHT22;8723;51.502;6.918;2023-05-19T14:10:54;21.20;1.00
17215;DHT22;8723;51.502;6.918;2023-05-19T14:13:21;21.00;1.00
17215;DHT22;8723;51.502;6.918;2023-05-19T14:15:48;20.80;1.00
17215;DHT22;8723;51.502;6.918;2023-05-19T14:18:15;20.80;1.00
17215;DHT22;8723;51.502;6.918;2023-05-19T14:20:42;20.90;1.00
17215;DHT22;8723;51.502;6.918;2023-05-19T14:23:09;20.80;1.00
17215;DHT22;8723;51.502;6.918;2023-05-19T14:25:35;20.60;1.00
17215;DHT22;8723;51.502;6.918;2023-05-19T14:28:04;20.70;1.00
17215;DHT22;8723;51.502;6.918;2023-05-19T14:30:30;20.70;1.00
17215;DHT22;8723;51.502;6.918;2023-05-19T14:32:58;20.70;1.00
17215;DHT22;8723;51.502;6.918;2023-05-19T14:35:24;20.70;1.00
17215;DHT22;8723;51.502;6.918;2023-05-19T14:37:51;20.70;1.00
17215;DHT22;8723;51.502;6.918;2023-05-19T14:40:18;20.70;1.00
17215;DHT22;8723;51.502;6.918;2023-05-19T14:42:45;20.60;1.00
17215;DHT22;8723;51.502;6.918;2023-05-19T14:45:14;20.50;1.00
17215;DHT22;8723;51.502;6.918;2023-05-19T14:47:40;20.50;1.00
17215;DHT22;8723;51.502;6.918;2023-05-19T14:50:07;20.50;1.00
17215;DHT22;8723;51.502;6.918;2023-05-19T14:52:34;20.50;1.00
17215;DHT22;8723;51.502;6.918;2023-05-19T14:55:01;20.40;1.00
17215;DHT22;8723;51.502;6.918;2023-05-19T14:57:28;20.30;1.00
17215;DHT22;8723;51.502;6.918;2023-05-19T14:59:55;20.30;1.00
17215;DHT22;8723;51.502;6.918;2023-05-19T15:02:23;20.20;1.00
17215;DHT22;8723;51.502;6.918;2023-05-19T15:04:50;20.20;1.00
17215;DHT22;8723;51.502;6.918;2023-05-19T15:07:16;20.10;1.00
17215;DHT22;8723;51.502;6.918;2023-05-19T15:09:43;20.00;1.00
17215;DHT22;8723;51.502;6.918;2023-05-19T15:12:10;20.00;1.00
17215;DHT22;8723;51.502;6.918;2023-05-19T15:14:37;20.10;1.00
17215;DHT22;8723;51.502;6.918;2023-05-19T15:17:04;20.10;1.00
17215;DHT22;8723;51.502;6.918;2023-05-19T15:19:32;20.10;1.00
17215;DHT22;8723;51.502;6.918;2023-05-19T15:21:59;20.00;1.00
17215;DHT22;8723;51.502;6.918;2023-05-19T15:24:26;20.00;1.00
17215;DHT22;8723;51.502;6.918;2023-05-19T15:26:53;20.00;1.00
17215;DHT22;8723;51.502;6.918;2023-05-19T15:29:20;20.00;1.00
17215;DHT22;8723;51.502;6.918;2023-05-19T15:31:48;20.10;1.00
17215;DHT22;8723;51.502;6.918;2023-05-19T15:34:16;19.90;1.00
17215;DHT22;8723;51.502;6.918;2023-05-19T15:36:44;19.80;1.00
17215;DHT22;8723;51.502;6.918;2023-05-19T15:39:11;19.60;1.00
17215;DHT22;8723;51.502;6.918;2023-05-19T15:41:38;19.50;1.00
17215;DHT22;8723;51.502;6.918;2023-05-19T15:44:04;19.40;1.00
17215;DHT22;8723;51.502;6.918;2023-05-19T15:46:32;19.30;1.00
17215;DHT22;8723;51.502;6.918;2023-05-19T15:48:59;19.30;1.00
17215;DHT22;8723;51.502;6.918;2023-05-19T15:51:26;19.30;1.00
17215;DHT22;8723;51.502;6.918;2023-05-19T15:53:54;19.30;1.00
17215;DHT22;8723;51.502;6.918;2023-05-19T15:56:21;19.30;1.00
17215;DHT22;8723;51.502;6.918;2023-05-19T15:58:48;19.30;1.00
17215;DHT22;8723;51.502;6.918;2023-05-19T16:01:15;19.40;1.00
17215;DHT22;8723;51.502;6.918;2023-05-19T16:03:42;19.50;1.00
17215;DHT22;8723;51.502;6.918;2023-05-19T16:06:09;19.60;1.00
17215;DHT22;8723;51.502;6.918;2023-05-19T16:08:36;19.40;1.00
17215;DHT22;8723;51.502;6.918;2023-05-19T16:11:04;19.30;1.00
17215;DHT22;8723;51.502;6.918;2023-05-19T16:13:31;19.20;1.00